sensor_id;sensor_type;location;lat;lon;timestamp;pressure;altitude;pressure_sealevel;temperature;humidity
17054;BME280;8643;48.824;11.422;2023-10-13T00:02:07;97101.28;;;12.50;100.00
17054;BME280;8643;48.824;11.422;2023-10-13T00:04:37;97102.94;;;12.30;100.00
17054;BME280;8643;48.824;11.422;2023-10-13T00:07:06;97104.16;;;12.20;100.00
17054;BME280;8643;48.824;11.422;2023-10-13T00:09:36;97099.69;;;12.16;100.00
17054;BME280;8643;48.824;11.422;2023-10-13T00:12:06;97096.03;;;12.12;100.00
17054;BME280;8643;48.824;11.422;2023-10-13T00:14:37;97102.84;;;12.05;100.00
17054;BME280;8643;48.824;11.422;2023-10-13T00:17:06;97096.56;;;12.05;100.00
17054;BME280;8643;48.824;11.422;2023-10-13T00:19:39;97097.75;;;12.16;100.00
17054;BME280;8643;48.824;11.422;2023-10-13T00:22:14;97096.41;;;12.22;100.00
17054;BME280;8643;48.824;11.422;2023-10-13T00:24:44;97092.78;;;12.31;100.00
17054;BME280;8643;48.824;11.422;2023-10-13T00:27:16;97092.09;;;12.34;100.00
17054;BME280;8643;48.824;11.422;2023-10-13T00:29:58;97081.78;;;12.31;100.00
17054;BME280;8643;48.824;11.422;2023-10-13T00:32:46;97084.06;;;12.28;100.00
17054;BME280;8643;48.824;11.422;2023-10-13T00:35:22;97089.09;;;12.26;100.00
17054;BME280;8643;48.824;11.422;2023-10-13T00:37:56;97086.13;;;12.19;100.00
17054;BME280;8643;48.824;11.422;2023-10-13T00:40:26;97088.59;;;12.12;100.00
17054;BME280;8643;48.824;11.422;2023-10-13T00:43:13;97084.81;;;12.04;100.00
17054;BME280;8643;48.824;11.422;2023-10-13T00:46:07;97087.41;;;12.01;100.00
17054;BME280;8643;48.824;11.422;2023-10-13T00:48:42;97090.47;;;11.99;100.00
17054;BME280;8643;48.824;11.422;2023-10-13T00:51:21;97092.56;;;12.02;100.00
17054;BME280;8643;48.824;11.422;2023-10-13T00:54:03;97095.50;;;11.97;100.00
17054;BME280;8643;48.824;11.422;2023-10-13T00:56:37;97095.97;;;11.99;100.00
17054;BME280;8643;48.824;11.422;2023-10-13T00:59:14;97086.81;;;11.95;100.00
17054;BME280;8643;48.824;11.422;2023-10-13T01:01:43;97084.19;;;11.99;100.00
17054;BME280;8643;48.824;11.422;2023-10-13T01:04:11;97080.13;;;12.05;100.00
17054;BME280;8643;48.824;11.422;2023-10-13T01:06:41;97079.09;;;12.09;100.00
17054;BME280;8643;48.824;11.422;2023-10-13T01:09:11;97077.59;;;12.12;100.00
17054;BME280;8643;48.824;11.422;2023-10-13T01:11:41;97087.13;;;12.27;100.00
17054;BME280;8643;48.824;11.422;2023-10-13T01:14:12;97087.84;;;12.36;100.00
17054;BME280;8643;48.824;11.422;2023-10-13T01:16:42;97082.47;;;12.40;100.00
17054;BME280;8643;48.824;11.422;2023-10-13T01:19:13;97080.91;;;12.39;100.00
17054;BME280;8643;48.824;11.422;2023-10-13T01:21:42;97080.97;;;12.30;100.00
17054;BME280;8643;48.824;11.422;2023-10-13T01:24:14;97074.78;;;12.21;100.00
17054;BME280;8643;48.824;11.422;2023-10-13T01:26:46;97076.72;;;12.20;100.00
17054;BME280;8643;48.824;11.422;2023-10-13T01:29:18;97074.66;;;12.17;100.00
17054;BME280;8643;48.824;11.422;2023-10-13T01:31:47;97074.53;;;12.14;100.00
17054;BME280;8643;48.824;11.422;2023-10-13T01:34:16;97063.09;;;12.12;100.00
17054;BME280;8643;48.824;11.422;2023-10-13T01:36:50;97060.22;;;12.08;100.00
17054;BME280;8643;48.824;11.422;2023-10-13T01:39:23;97058.41;;;12.12;100.00
17054;BME280;8643;48.824;11.422;2023-10-13T01:41:55;97061.34;;;12.07;100.00
17054;BME280;8643;48.824;11.422;2023-10-13T01:44:24;97060.56;;;12.06;100.00
17054;BME280;8643;48.824;11.422;2023-10-13T01:46:55;97062.38;;;12.02;100.00
17054;BME280;8643;48.824;11.422;2023-10-13T01:49:23;97064.22;;;11.89;100.00
17054;BME280;8643;48.824;11.422;2023-10-13T01:51:52;97067.53;;;11.83;100.00
17054;BME280;8643;48.824;11.422;2023-10-13T01:54:21;97065.19;;;11.72;100.00
17054;BME280;8643;48.824;11.422;2023-10-13T01:56:49;97061.88;;;11.67;100.00
17054;BME280;8643;48.824;11.422;2023-10-13T01:59:17;97060.34;;;11.57;100.00
17054;BME280;8643;48.824;11.422;2023-10-13T02:01:47;97067.75;;;11.56;100.00
17054;BME280;8643;48.824;11.422;2023-10-13T02:04:14;97064.09;;;11.52;100.00
17054;BME280;8643;48.824;11.422;2023-10-13T02:06:48;97059.47;;;11.44;100.00
17054;BME280;8643;48.824;11.422;2023-10-13T02:09:16;97068.69;;;11.40;100.00
17054;BME280;8643;48.824;11.422;2023-10-13T02:11:55;97062.91;;;11.32;100.00
17054;BME280;8643;48.824;11.422;2023-10-13T02:14:23;97062.53;;;11.43;100.00
17054;BME280;8643;48.824;11.422;2023-10-13T02:16:53;97070.22;;;11.49;100.00
17054;BME280;8643;48.824;11.422;2023-10-13T02:19:39;97064.75;;;11.49;100.00
17054;BME280;8643;48.824;11.422;2023-10-13T02:22:13;97062.38;;;11.39;100.00
17054;BME280;8643;48.824;11.422;2023-10-13T02:24:55;97061.88;;;11.25;100.00
17054;BME280;8643;48.824;11.422;2023-10-13T02:27:32;97047.41;;;11.15;100.00
17054;BME280;8643;48.824;11.422;2023-10-13T02:30:09;97053.44;;;11.09;100.00
17054;BME280;8643;48.824;11.422;2023-10-13T02:32:42;97047.88;;;11.17;100.00
17054;BME280;8643;48.824;11.422;2023-10-13T02:35:11;97050.25;;;11.28;100.00
17054;BME280;8643;48.824;11.422;2023-10-13T02:37:42;97051.97;;;11.32;100.00
17054;BME280;8643;48.824;11.422;2023-10-13T02:40:11;97058.47;;;11.28;100.00
17054;BME280;8643;48.824;11.422;2023-10-13T02:42:41;97056.84;;;11.27;100.00
17054;BME280;8643;48.824;11.422;2023-10-13T02:45:09;97051.38;;;11.27;100.00
17054;BME280;8643;48.824;11.422;2023-10-13T02:47:39;97047.50;;;11.28;100.00
17054;BME280;8643;48.824;11.422;2023-10-13T02:50:07;97049.56;;;11.31;100.00
17054;BME280;8643;48.824;11.422;2023-10-13T02:52:40;97048.63;;;11.27;100.00
17054;BME280;8643;48.824;11.422;2023-10-13T02:55:09;97048.16;;;11.25;100.00
17054;BME280;8643;48.824;11.422;2023-10-13T02:57:42;97040.59;;;11.22;100.00
17054;BME280;8643;48.824;11.422;2023-10-13T03:00:12;97047.09;;;11.17;100.00
17054;BME280;8643;48.824;11.422;2023-10-13T03:02:40;97042.06;;;11.19;100.00
17054;BME280;8643;48.824;11.422;2023-10-13T03:05:12;97049.50;;;11.18;100.00
17054;BME280;8643;48.824;11.422;2023-10-13T03:07:41;97049.41;;;11.27;100.00
17054;BME280;8643;48.824;11.422;2023-10-13T03:10:11;97046.69;;;11.27;100.00
17054;BME280;8643;48.824;11.422;2023-10-13T03:12:41;97043.94;;;11.27;100.00
17054;BME280;8643;48.824;11.422;2023-10-13T03:15:15;97038.00;;;11.25;100.00
17054;BME280;8643;48.824;11.422;2023-10-13T03:17:47;97043.34;;;11.22;100.00
17054;BME280;8643;48.824;11.422;2023-10-13T03:20:17;97040.16;;;11.19;100.00
17054;BME280;8643;48.824;11.422;2023-10-13T03:22:53;97035.31;;;11.16;100.00
17054;BME280;8643;48.824;11.422;2023-10-13T03:25:21;97042.53;;;11.21;100.00
17054;BME280;8643;48.824;11.422;2023-10-13T03:27:55;97042.53;;;11.21;100.00
17054;BME280;8643;48.824;11.422;2023-10-13T03:30:32;97029.84;;;11.16;100.00
17054;BME280;8643;48.824;11.422;2023-10-13T03:33:04;97035.00;;;11.18;100.00
17054;BME280;8643;48.824;11.422;2023-10-13T03:35:36;97035.31;;;11.16;100.00
17054;BME280;8643;48.824;11.422;2023-10-13T03:38:09;97030.50;;;11.13;100.00
17054;BME280;8643;48.824;11.422;2023-10-13T03:40:54;97026.22;;;11.04;100.00
17054;BME280;8643;48.824;11.422;2023-10-13T03:43:36;97030.28;;;10.97;100.00
17054;BME280;8643;48.824;11.422;2023-10-13T03:46:13;97020.97;;;10.90;100.00
17054;BME280;8643;48.824;11.422;2023-10-13T03:48:42;97020.41;;;10.75;100.00
17054;BME280;8643;48.824;11.422;2023-10-13T03:51:22;97016.63;;;10.59;100.00
17054;BME280;8643;48.824;11.422;2023-10-13T03:53:58;97019.09;;;10.52;100.00
17054;BME280;8643;48.824;11.422;2023-10-13T03:56:35;97018.00;;;10.44;100.00
17054;BME280;8643;48.824;11.422;2023-10-13T03:59:13;97024.44;;;10.39;100.00
17054;BME280;8643;48.824;11.422;2023-10-13T04:01:48;97022.53;;;10.31;100.00
17054;BME280;8643;48.824;11.422;2023-10-13T04:04:27;97023.06;;;10.33;100.00
17054;BME280;8643;48.824;11.422;2023-10-13T04:07:03;97022.72;;;10.26;100.00
17054;BME280;8643;48.824;11.422;2023-10-13T04:09:58;97018.41;;;10.16;100.00
17054;BME280;8643;48.824;11.422;2023-10-13T04:13:07;97021.34;;;10.02;100.00
17054;BME280;8643;48.824;11.422;2023-10-13T04:15:54;97024.72;;;9.99;100.00
17054;BME280;8643;48.824;11.422;2023-10-13T04:19:02;97013.97;;;9.94;100.00
17054;BME280;8643;48.824;11.422;2023-10-13T04:21:38;97010.59;;;9.88;100.00
17054;BME280;8643;48.824;11.422;2023-10-13T04:24:22;97014.75;;;9.86;100.00
17054;BME280;8643;48.824;11.422;2023-10-13T04:27:05;97013.66;;;9.78;100.00
17054;BME280;8643;48.824;11.422;2023-10-13T04:29:51;97005.97;;;9.71;100.00
17054;BME280;8643;48.824;11.422;2023-10-13T04:32:39;97000.03;;;9.61;100.00
17054;BME280;8643;48.824;11.422;2023-10-13T04:35:08;97017.41;;;9.65;100.00
17054;BME280;8643;48.824;11.422;2023-10-13T04:37:45;97014.63;;;9.73;100.00
17054;BME280;8643;48.824;11.422;2023-10-13T04:40:20;97010.75;;;9.83;100.00
17054;BME280;8643;48.824;11.422;2023-10-13T04:42:53;97005.91;;;9.89;100.00
17054;BME280;8643;48.824;11.422;2023-10-13T04:45:24;97009.94;;;9.91;100.00
17054;BME280;8643;48.824;11.422;2023-10-13T04:48:18;97008.00;;;9.92;100.00
17054;BME280;8643;48.824;11.422;2023-10-13T04:51:02;97008.78;;;10.01;100.00
17054;BME280;8643;48.824;11.422;2023-10-13T04:53:48;97008.00;;;10.01;100.00
17054;BME280;8643;48.824;11.422;2023-10-13T04:56:31;97007.03;;;9.97;100.00
17054;BME280;8643;48.824;11.422;2023-10-13T04:59:26;97000.28;;;9.85;100.00
17054;BME280;8643;48.824;11.422;2023-10-13T05:02:04;97000.31;;;9.77;100.00
17054;BME280;8643;48.824;11.422;2023-10-13T05:05:05;97001.47;;;9.67;100.00
17054;BME280;8643;48.824;11.422;2023-10-13T05:07:49;96995.50;;;9.56;100.00
17054;BME280;8643;48.824;11.422;2023-10-13T05:10:36;97006.44;;;9.56;100.00
17054;BME280;8643;48.824;11.422;2023-10-13T05:13:22;97000.03;;;9.52;100.00
17054;BME280;8643;48.824;11.422;2023-10-13T05:16:09;96996.81;;;9.50;100.00
17054;BME280;8643;48.824;11.422;2023-10-13T05:18:55;97008.72;;;9.54;100.00
17054;BME280;8643;48.824;11.422;2023-10-13T05:21:42;97004.69;;;9.60;100.00
17054;BME280;8643;48.824;11.422;2023-10-13T05:24:29;97012.91;;;9.60;100.00
17054;BME280;8643;48.824;11.422;2023-10-13T05:27:15;97003.72;;;9.56;100.00
17054;BME280;8643;48.824;11.422;2023-10-13T05:30:02;97010.66;;;9.53;100.00
17054;BME280;8643;48.824;11.422;2023-10-13T05:32:48;97001.81;;;9.57;100.00
17054;BME280;8643;48.824;11.422;2023-10-13T05:35:34;97006.63;;;9.51;100.00
17054;BME280;8643;48.824;11.422;2023-10-13T05:38:32;97011.44;;;9.54;100.00
17054;BME280;8643;48.824;11.422;2023-10-13T05:41:18;97017.22;;;9.52;100.00
17054;BME280;8643;48.824;11.422;2023-10-13T05:44:04;97015.81;;;9.55;100.00
17054;BME280;8643;48.824;11.422;2023-10-13T05:46:50;97017.72;;;9.54;100.00
17054;BME280;8643;48.824;11.422;2023-10-13T05:49:50;97017.53;;;9.60;100.00
17054;BME280;8643;48.824;11.422;2023-10-13T05:52:20;97019.81;;;9.66;100.00
17054;BME280;8643;48.824;11.422;2023-10-13T05:55:05;97016.06;;;9.71;100.00
17054;BME280;8643;48.824;11.422;2023-10-13T05:57:51;97017.84;;;9.84;100.00
17054;BME280;8643;48.824;11.422;2023-10-13T06:00:41;97015.88;;;10.02;100.00
17054;BME280;8643;48.824;11.422;2023-10-13T06:03:27;97026.00;;;10.11;100.00
17054;BME280;8643;48.824;11.422;2023-10-13T06:06:14;97012.88;;;10.25;100.00
17054;BME280;8643;48.824;11.422;2023-10-13T06:08:59;97020.63;;;10.23;100.00
17054;BME280;8643;48.824;11.422;2023-10-13T06:11:47;97020.44;;;10.28;100.00
17054;BME280;8643;48.824;11.422;2023-10-13T06:14:33;97024.31;;;10.27;100.00
17054;BME280;8643;48.824;11.422;2023-10-13T06:17:19;97028.16;;;10.43;100.00
17054;BME280;8643;48.824;11.422;2023-10-13T06:20:06;97030.31;;;10.59;100.00
17054;BME280;8643;48.824;11.422;2023-10-13T06:22:53;97030.63;;;10.66;100.00
17054;BME280;8643;48.824;11.422;2023-10-13T06:25:39;97029.63;;;10.71;100.00
17054;BME280;8643;48.824;11.422;2023-10-13T06:28:25;97030.72;;;10.78;100.00
17054;BME280;8643;48.824;11.422;2023-10-13T06:31:11;97034.00;;;10.93;100.00
17054;BME280;8643;48.824;11.422;2023-10-13T06:33:49;97030.22;;;11.06;100.00
17054;BME280;8643;48.824;11.422;2023-10-13T06:36:18;97025.03;;;11.13;100.00
17054;BME280;8643;48.824;11.422;2023-10-13T06:38:48;97026.75;;;11.39;100.00
17054;BME280;8643;48.824;11.422;2023-10-13T06:41:23;97028.78;;;11.84;100.00
17054;BME280;8643;48.824;11.422;2023-10-13T06:44:08;97033.28;;;12.35;100.00
17054;BME280;8643;48.824;11.422;2023-10-13T06:46:42;97028.16;;;12.82;100.00
17054;BME280;8643;48.824;11.422;2023-10-13T06:49:12;97030.03;;;13.31;100.00
17054;BME280;8643;48.824;11.422;2023-10-13T06:51:41;97037.50;;;13.71;100.00
17054;BME280;8643;48.824;11.422;2023-10-13T06:54:09;97028.84;;;14.29;100.00
17054;BME280;8643;48.824;11.422;2023-10-13T06:56:47;97031.47;;;14.70;100.00
17054;BME280;8643;48.824;11.422;2023-10-13T06:59:21;97027.63;;;15.26;100.00
17054;BME280;8643;48.824;11.422;2023-10-13T07:01:54;97039.06;;;15.44;100.00
17054;BME280;8643;48.824;11.422;2023-10-13T07:04:46;97043.16;;;15.70;100.00
17054;BME280;8643;48.824;11.422;2023-10-13T07:07:15;97045.78;;;16.02;100.00
17054;BME280;8643;48.824;11.422;2023-10-13T07:09:44;97041.97;;;16.10;100.00
17054;BME280;8643;48.824;11.422;2023-10-13T07:12:16;97054.19;;;16.75;100.00
17054;BME280;8643;48.824;11.422;2023-10-13T07:14:50;97053.28;;;17.44;100.00
17054;BME280;8643;48.824;11.422;2023-10-13T07:17:27;97050.00;;;17.65;100.00
17054;BME280;8643;48.824;11.422;2023-10-13T07:20:00;97049.91;;;18.22;100.00
17054;BME280;8643;48.824;11.422;2023-10-13T07:22:42;97057.63;;;18.39;100.00
17054;BME280;8643;48.824;11.422;2023-10-13T07:25:22;97058.84;;;18.42;98.18
17054;BME280;8643;48.824;11.422;2023-10-13T07:27:54;97059.94;;;18.71;96.48
17054;BME280;8643;48.824;11.422;2023-10-13T07:30:26;97057.41;;;19.00;95.87
17054;BME280;8643;48.824;11.422;2023-10-13T07:32:55;97054.59;;;19.55;90.32
17054;BME280;8643;48.824;11.422;2023-10-13T07:35:27;97058.00;;;19.90;88.31
17054;BME280;8643;48.824;11.422;2023-10-13T07:37:58;97054.91;;;20.24;89.03
17054;BME280;8643;48.824;11.422;2023-10-13T07:40:28;97062.13;;;20.43;84.19
17054;BME280;8643;48.824;11.422;2023-10-13T07:43:08;97052.25;;;20.63;80.60
17054;BME280;8643;48.824;11.422;2023-10-13T07:45:40;97054.66;;;21.04;75.80
17054;BME280;8643;48.824;11.422;2023-10-13T07:48:11;97051.88;;;20.86;73.11
17054;BME280;8643;48.824;11.422;2023-10-13T07:50:48;97059.81;;;21.10;74.83
17054;BME280;8643;48.824;11.422;2023-10-13T07:53:28;97056.22;;;21.34;71.08
17054;BME280;8643;48.824;11.422;2023-10-13T07:56:02;97056.63;;;21.40;75.15
17054;BME280;8643;48.824;11.422;2023-10-13T07:58:33;97061.31;;;21.79;70.26
17054;BME280;8643;48.824;11.422;2023-10-13T08:01:14;97062.47;;;21.92;67.56
17054;BME280;8643;48.824;11.422;2023-10-13T08:03:46;97060.31;;;22.29;66.05
17054;BME280;8643;48.824;11.422;2023-10-13T08:06:17;97062.56;;;22.56;66.57
17054;BME280;8643;48.824;11.422;2023-10-13T08:08:49;97054.94;;;22.63;65.19
17054;BME280;8643;48.824;11.422;2023-10-13T08:11:21;97054.84;;;23.27;59.98
17054;BME280;8643;48.824;11.422;2023-10-13T08:13:58;97057.00;;;22.56;62.44
17054;BME280;8643;48.824;11.422;2023-10-13T08:16:59;97050.09;;;22.71;62.51
17054;BME280;8643;48.824;11.422;2023-10-13T08:19:29;97047.22;;;22.85;60.62
17054;BME280;8643;48.824;11.422;2023-10-13T08:22:09;97043.56;;;23.41;58.62
17054;BME280;8643;48.824;11.422;2023-10-13T08:24:52;97043.31;;;23.24;58.87
17054;BME280;8643;48.824;11.422;2023-10-13T08:27:42;97049.19;;;23.37;59.10
17054;BME280;8643;48.824;11.422;2023-10-13T08:30:28;97044.78;;;23.74;58.34
17054;BME280;8643;48.824;11.422;2023-10-13T08:32:58;97043.44;;;23.90;59.00
17054;BME280;8643;48.824;11.422;2023-10-13T08:35:44;97037.34;;;23.98;56.33
17054;BME280;8643;48.824;11.422;2023-10-13T08:38:42;97042.84;;;24.06;57.68
17054;BME280;8643;48.824;11.422;2023-10-13T08:41:19;97036.75;;;23.80;57.13
17054;BME280;8643;48.824;11.422;2023-10-13T08:44:02;97038.25;;;24.50;54.11
17054;BME280;8643;48.824;11.422;2023-10-13T08:46:38;97034.06;;;24.34;58.31
17054;BME280;8643;48.824;11.422;2023-10-13T08:49:33;97035.69;;;25.37;55.12
17054;BME280;8643;48.824;11.422;2023-10-13T08:52:15;97036.28;;;25.01;51.52
17054;BME280;8643;48.824;11.422;2023-10-13T08:55:05;97033.69;;;24.63;48.22
17054;BME280;8643;48.824;11.422;2023-10-13T08:57:56;97034.00;;;24.11;47.67
17054;BME280;8643;48.824;11.422;2023-10-13T09:00:42;97033.53;;;24.16;46.88
17054;BME280;8643;48.824;11.422;2023-10-13T09:03:23;97026.84;;;23.72;47.71
17054;BME280;8643;48.824;11.422;2023-10-13T09:06:12;97030.22;;;25.30;46.04
17054;BME280;8643;48.824;11.422;2023-10-13T09:08:42;97030.22;;;25.30;46.81
17054;BME280;8643;48.824;11.422;2023-10-13T09:11:33;97028.38;;;24.42;45.73
17054;BME280;8643;48.824;11.422;2023-10-13T09:14:16;97025.50;;;25.23;46.40
17054;BME280;8643;48.824;11.422;2023-10-13T09:17:03;97023.00;;;25.73;44.71
17054;BME280;8643;48.824;11.422;2023-10-13T09:20:01;97014.03;;;27.07;43.80
17054;BME280;8643;48.824;11.422;2023-10-13T09:22:49;97023.00;;;27.02;41.43
17054;BME280;8643;48.824;11.422;2023-10-13T09:25:24;97019.81;;;26.31;41.15
17054;BME280;8643;48.824;11.422;2023-10-13T09:27:52;97019.13;;;26.43;42.71
17054;BME280;8643;48.824;11.422;2023-10-13T09:30:20;97020.88;;;26.21;42.86
17054;BME280;8643;48.824;11.422;2023-10-13T09:33:01;97018.34;;;27.12;43.29
17054;BME280;8643;48.824;11.422;2023-10-13T09:35:30;97015.00;;;27.17;40.87
17054;BME280;8643;48.824;11.422;2023-10-13T09:38:03;97022.81;;;26.04;41.62
17054;BME280;8643;48.824;11.422;2023-10-13T09:40:31;97018.97;;;26.34;41.75
17054;BME280;8643;48.824;11.422;2023-10-13T09:43:05;97008.34;;;26.78;42.54
17054;BME280;8643;48.824;11.422;2023-10-13T09:45:35;97007.13;;;26.96;41.69
17054;BME280;8643;48.824;11.422;2023-10-13T09:48:10;97011.19;;;27.24;39.98
17054;BME280;8643;48.824;11.422;2023-10-13T09:50:47;97000.00;;;26.91;40.77
17054;BME280;8643;48.824;11.422;2023-10-13T09:53:18;97002.38;;;26.93;40.69
17054;BME280;8643;48.824;11.422;2023-10-13T09:56:01;97002.03;;;27.53;41.91
17054;BME280;8643;48.824;11.422;2023-10-13T09:58:48;96993.53;;;27.98;42.04
17054;BME280;8643;48.824;11.422;2023-10-13T10:01:27;96996.75;;;28.26;39.97
17054;BME280;8643;48.824;11.422;2023-10-13T10:04:09;96994.53;;;27.63;39.21
17054;BME280;8643;48.824;11.422;2023-10-13T10:06:52;96993.75;;;27.00;40.11
17054;BME280;8643;48.824;11.422;2023-10-13T10:09:28;96985.03;;;27.86;39.30
17054;BME280;8643;48.824;11.422;2023-10-13T10:12:20;96987.66;;;27.64;37.91
17054;BME280;8643;48.824;11.422;2023-10-13T10:15:20;96987.09;;;26.77;40.44
17054;BME280;8643;48.824;11.422;2023-10-13T10:17:55;96986.78;;;26.55;40.89
17054;BME280;8643;48.824;11.422;2023-10-13T10:20:30;96983.25;;;27.50;40.23
17054;BME280;8643;48.824;11.422;2023-10-13T10:23:09;96984.00;;;28.73;38.85
17054;BME280;8643;48.824;11.422;2023-10-13T10:25:47;96975.75;;;30.28;37.10
17054;BME280;8643;48.824;11.422;2023-10-13T10:28:19;96973.81;;;30.47;37.47
17054;BME280;8643;48.824;11.422;2023-10-13T10:30:47;96971.31;;;30.40;35.76
17054;BME280;8643;48.824;11.422;2023-10-13T10:33:17;96969.63;;;29.54;36.42
17054;BME280;8643;48.824;11.422;2023-10-13T10:35:48;96959.59;;;30.28;36.57
17054;BME280;8643;48.824;11.422;2023-10-13T10:38:27;96959.72;;;30.97;33.54
17054;BME280;8643;48.824;11.422;2023-10-13T10:41:07;96958.78;;;32.11;32.36
17054;BME280;8643;48.824;11.422;2023-10-13T10:43:37;96949.97;;;31.81;31.58
17054;BME280;8643;48.824;11.422;2023-10-13T10:46:14;96946.56;;;31.49;32.23
17054;BME280;8643;48.824;11.422;2023-10-13T10:48:45;96940.56;;;31.01;33.15
17054;BME280;8643;48.824;11.422;2023-10-13T10:51:15;96931.75;;;31.73;30.99
17054;BME280;8643;48.824;11.422;2023-10-13T10:53:49;96931.06;;;29.29;33.45
17054;BME280;8643;48.824;11.422;2023-10-13T10:56:25;96920.09;;;29.75;32.60
17054;BME280;8643;48.824;11.422;2023-10-13T10:59:06;96915.44;;;30.12;32.86
17054;BME280;8643;48.824;11.422;2023-10-13T11:01:44;96910.91;;;29.39;32.49
17054;BME280;8643;48.824;11.422;2023-10-13T11:04:15;96909.66;;;29.62;31.84
17054;BME280;8643;48.824;11.422;2023-10-13T11:06:49;96909.22;;;29.07;33.22
17054;BME280;8643;48.824;11.422;2023-10-13T11:09:24;96896.06;;;29.70;32.09
17054;BME280;8643;48.824;11.422;2023-10-13T11:12:13;96894.56;;;29.78;31.23
17054;BME280;8643;48.824;11.422;2023-10-13T11:15:02;96880.34;;;30.23;32.49
17054;BME280;8643;48.824;11.422;2023-10-13T11:17:33;96887.22;;;29.59;32.23
17054;BME280;8643;48.824;11.422;2023-10-13T11:20:11;96871.00;;;29.19;31.61
17054;BME280;8643;48.824;11.422;2023-10-13T11:22:54;96874.34;;;28.31;32.68
17054;BME280;8643;48.824;11.422;2023-10-13T11:25:25;96869.34;;;28.61;32.07
17054;BME280;8643;48.824;11.422;2023-10-13T11:28:12;96862.06;;;28.12;31.93
17054;BME280;8643;48.824;11.422;2023-10-13T11:30:47;96861.47;;;29.25;31.79
17054;BME280;8643;48.824;11.422;2023-10-13T11:33:18;96854.41;;;28.12;31.58
17054;BME280;8643;48.824;11.422;2023-10-13T11:35:51;96856.47;;;29.07;31.00
17054;BME280;8643;48.824;11.422;2023-10-13T11:38:29;96854.38;;;29.43;30.57
17054;BME280;8643;48.824;11.422;2023-10-13T11:41:11;96849.78;;;29.90;30.57
17054;BME280;8643;48.824;11.422;2023-10-13T11:43:49;96844.09;;;30.80;29.63
17054;BME280;8643;48.824;11.422;2023-10-13T11:46:31;96844.84;;;29.05;30.39
17054;BME280;8643;48.824;11.422;2023-10-13T11:49:17;96843.88;;;28.64;31.01
17054;BME280;8643;48.824;11.422;2023-10-13T11:51:47;96837.47;;;28.64;30.73
17054;BME280;8643;48.824;11.422;2023-10-13T11:54:17;96831.78;;;28.77;30.32
17054;BME280;8643;48.824;11.422;2023-10-13T11:56:48;96821.38;;;29.08;29.66
17054;BME280;8643;48.824;11.422;2023-10-13T11:59:18;96819.06;;;29.29;29.02
17054;BME280;8643;48.824;11.422;2023-10-13T12:01:51;96813.28;;;29.64;29.74
17054;BME280;8643;48.824;11.422;2023-10-13T12:04:39;96806.84;;;29.95;28.09
17054;BME280;8643;48.824;11.422;2023-10-13T12:07:19;96804.25;;;30.19;27.95
17054;BME280;8643;48.824;11.422;2023-10-13T12:09:50;96804.34;;;29.66;28.71
17054;BME280;8643;48.824;11.422;2023-10-13T12:12:33;96803.38;;;29.59;28.60
17054;BME280;8643;48.824;11.422;2023-10-13T12:15:11;96795.63;;;30.23;29.94
17054;BME280;8643;48.824;11.422;2023-10-13T12:17:53;96794.31;;;30.64;28.80
17054;BME280;8643;48.824;11.422;2023-10-13T12:20:26;96795.59;;;30.82;27.08
17054;BME280;8643;48.824;11.422;2023-10-13T12:23:01;96789.09;;;30.44;27.27
17054;BME280;8643;48.824;11.422;2023-10-13T12:25:43;96787.56;;;30.71;27.65
17054;BME280;8643;48.824;11.422;2023-10-13T12:28:27;96781.25;;;31.32;27.41
17054;BME280;8643;48.824;11.422;2023-10-13T12:31:04;96781.13;;;30.52;27.87
17054;BME280;8643;48.824;11.422;2023-10-13T12:33:34;96774.69;;;30.98;26.91
17054;BME280;8643;48.824;11.422;2023-10-13T12:36:08;96764.84;;;31.64;26.10
17054;BME280;8643;48.824;11.422;2023-10-13T12:38:43;96763.34;;;31.77;25.61
17054;BME280;8643;48.824;11.422;2023-10-13T12:41:25;96771.03;;;32.68;25.82
17054;BME280;8643;48.824;11.422;2023-10-13T12:44:11;96758.53;;;32.26;25.07
17054;BME280;8643;48.824;11.422;2023-10-13T12:46:58;96753.56;;;32.21;25.47
17054;BME280;8643;48.824;11.422;2023-10-13T12:49:44;96756.75;;;32.14;25.60
17054;BME280;8643;48.824;11.422;2023-10-13T12:52:26;96747.53;;;31.95;25.43
17054;BME280;8643;48.824;11.422;2023-10-13T12:54:59;96750.19;;;32.32;26.47
17054;BME280;8643;48.824;11.422;2023-10-13T12:57:34;96742.44;;;32.96;25.06
17054;BME280;8643;48.824;11.422;2023-10-13T13:00:13;96739.75;;;31.80;25.63
17054;BME280;8643;48.824;11.422;2023-10-13T13:02:52;96736.78;;;32.08;25.94
17054;BME280;8643;48.824;11.422;2023-10-13T13:05:23;96735.13;;;30.70;26.54
17054;BME280;8643;48.824;11.422;2023-10-13T13:07:57;96734.78;;;30.22;28.60
17054;BME280;8643;48.824;11.422;2023-10-13T13:10:25;96727.88;;;30.32;27.52
17054;BME280;8643;48.824;11.422;2023-10-13T13:13:04;96728.31;;;31.23;26.68
17054;BME280;8643;48.824;11.422;2023-10-13T13:15:33;96723.53;;;31.48;26.76
17054;BME280;8643;48.824;11.422;2023-10-13T13:18:03;96715.38;;;32.31;26.99
17054;BME280;8643;48.824;11.422;2023-10-13T13:20:39;96715.41;;;32.70;27.12
17054;BME280;8643;48.824;11.422;2023-10-13T13:23:20;96712.41;;;32.89;25.82
17054;BME280;8643;48.824;11.422;2023-10-13T13:25:49;96713.28;;;32.17;24.94
17054;BME280;8643;48.824;11.422;2023-10-13T13:28:17;96703.81;;;31.72;25.69
17054;BME280;8643;48.824;11.422;2023-10-13T13:30:46;96691.50;;;31.99;27.10
17054;BME280;8643;48.824;11.422;2023-10-13T13:33:19;96697.72;;;32.37;25.00
17054;BME280;8643;48.824;11.422;2023-10-13T13:35:54;96691.91;;;32.16;24.94
17054;BME280;8643;48.824;11.422;2023-10-13T13:38:27;96681.41;;;32.07;25.24
17054;BME280;8643;48.824;11.422;2023-10-13T13:40:59;96683.06;;;31.66;24.59
17054;BME280;8643;48.824;11.422;2023-10-13T13:43:30;96680.50;;;30.27;26.24
17054;BME280;8643;48.824;11.422;2023-10-13T13:46:07;96670.75;;;31.02;26.17
17054;BME280;8643;48.824;11.422;2023-10-13T13:48:39;96670.41;;;31.52;25.81